Ponderosa Estates, Washington
Current Conditions -  °F | °C
As of 8:58 AM on Sunday 23 Nov 2014 (Local Time) from KTCM Reporting Station
Moderate Rain Moderate Rain  
Wind Chill: 39°   Ceiling: 4100
Heat Index: 47°   Visibility: 5mi
Dew Point: 47°   Wind: 23mph
Humidity: 99%   Direction: 190°S
Pressure: 30.12"   Gusts: 23mph
Location:  47.1874°N, 122.164°W
Report Text: KTCM 231658Z AUTO 19020G20KT 5SM RA BR OVC041 08/08 A3012 RMK AO2 PK WND 23026/53 SLP205 P0025 T00840083 $
Loading
Personal Weather Stations






























Interactive Weather Map New forecast layout! Learn more

10-Day Weather Forecast

Advertisements
Track Severe Weather on mobile